Powder Springs, Georgia
Current Conditions -  °F | °C
As of 7:58 PM on Thursday 18 Dec 2014 (Local Time) from KMGE Reporting Station
Scattered Clouds Scattered Clouds  
Wind Chill: 36°   Ceiling: Unl
Heat Index: 41°   Visibility: 10mi
Dew Point: 35°   Wind: 7mph
Humidity: 78%   Direction: 290°WNW
Pressure: 30.14"   Gusts: NA
Location:  33.86°N, 84.68°W
Report Text: KMGE 190058Z 29006KT 10SM FEW100 SCT250 05/01 A3014 RMK AO2A SLP214 T00490014 $
Loading
Personal Weather Stations






























Interactive Weather Map New forecast layout! Learn more

10-Day Weather Forecast

Advertisements
Track Severe Weather on mobile